sensor_id;sensor_type;location;lat;lon;timestamp;pressure;altitude;pressure_sealevel;temperature;humidity
74327;BME280;62745;51.060;13.786;2023-06-14T00:01:00;100202.06;;;12.93;74.48
74327;BME280;62745;51.060;13.786;2023-06-14T00:03:29;100195.09;;;12.79;75.15
74327;BME280;62745;51.060;13.786;2023-06-14T00:05:54;100193.44;;;12.78;73.90
74327;BME280;62745;51.060;13.786;2023-06-14T00:08:19;100195.06;;;12.59;74.98
74327;BME280;62745;51.060;13.786;2023-06-14T00:10:46;100189.75;;;12.46;75.15
74327;BME280;62745;51.060;13.786;2023-06-14T00:13:11;100186.84;;;12.41;76.47
74327;BME280;62745;51.060;13.786;2023-06-14T00:15:37;100188.06;;;12.38;76.13
74327;BME280;62745;51.060;13.786;2023-06-14T00:18:03;100190.34;;;12.28;76.01
74327;BME280;62745;51.060;13.786;2023-06-14T00:20:30;100189.28;;;12.22;76.60
74327;BME280;62745;51.060;13.786;2023-06-14T00:23:01;100193.22;;;12.20;77.57
74327;BME280;62745;51.060;13.786;2023-06-14T00:25:27;100192.16;;;12.01;77.56
74327;BME280;62745;51.060;13.786;2023-06-14T00:27:53;100187.63;;;12.01;79.17
74327;BME280;62745;51.060;13.786;2023-06-14T00:30:19;100179.16;;;11.91;78.51
74327;BME280;62745;51.060;13.786;2023-06-14T00:32:44;100178.84;;;11.73;79.08
74327;BME280;62745;51.060;13.786;2023-06-14T00:35:10;100179.69;;;11.73;80.17
74327;BME280;62745;51.060;13.786;2023-06-14T00:37:36;100180.38;;;11.89;80.03
74327;BME280;62745;51.060;13.786;2023-06-14T00:40:02;100176.19;;;11.66;80.07
74327;BME280;62745;51.060;13.786;2023-06-14T00:42:28;100179.66;;;11.60;80.36
74327;BME280;62745;51.060;13.786;2023-06-14T00:44:53;100182.09;;;11.49;80.46
74327;BME280;62745;51.060;13.786;2023-06-14T00:47:19;100184.28;;;11.38;81.41
74327;BME280;62745;51.060;13.786;2023-06-14T00:49:46;100182.63;;;11.31;82.15
74327;BME280;62745;51.060;13.786;2023-06-14T00:52:13;100177.41;;;11.16;82.40
74327;BME280;62745;51.060;13.786;2023-06-14T00:54:40;100187.88;;;11.11;83.04
74327;BME280;62745;51.060;13.786;2023-06-14T00:57:06;100182.88;;;11.08;83.20
74327;BME280;62745;51.060;13.786;2023-06-14T00:59:32;100181.63;;;11.04;83.68
74327;BME280;62745;51.060;13.786;2023-06-14T01:01:58;100183.47;;;10.97;83.46
74327;BME280;62745;51.060;13.786;2023-06-14T01:04:23;100178.50;;;10.94;83.94
74327;BME280;62745;51.060;13.786;2023-06-14T01:07:02;100186.66;;;10.85;84.74
74327;BME280;62745;51.060;13.786;2023-06-14T01:10:03;100188.31;;;10.87;85.05
74327;BME280;62745;51.060;13.786;2023-06-14T01:12:39;100179.56;;;10.99;85.31
74327;BME280;62745;51.060;13.786;2023-06-14T01:15:09;100185.13;;;10.98;85.06
74327;BME280;62745;51.060;13.786;2023-06-14T01:17:35;100180.88;;;11.10;84.25
74327;BME280;62745;51.060;13.786;2023-06-14T01:20:07;100174.72;;;11.16;83.37
74327;BME280;62745;51.060;13.786;2023-06-14T01:22:35;100176.38;;;11.17;83.44
74327;BME280;62745;51.060;13.786;2023-06-14T01:25:01;100177.00;;;11.19;84.42
74327;BME280;62745;51.060;13.786;2023-06-14T01:27:26;100184.38;;;11.10;84.87
74327;BME280;62745;51.060;13.786;2023-06-14T01:29:55;100175.28;;;11.05;85.34
74327;BME280;62745;51.060;13.786;2023-06-14T01:32:24;100174.69;;;11.09;86.01
74327;BME280;62745;51.060;13.786;2023-06-14T01:34:51;100177.06;;;11.26;84.45
74327;BME280;62745;51.060;13.786;2023-06-14T01:37:16;100170.63;;;11.20;84.42
74327;BME280;62745;51.060;13.786;2023-06-14T01:39:43;100177.06;;;11.26;84.77
74327;BME280;62745;51.060;13.786;2023-06-14T01:42:09;100171.06;;;11.24;84.70
74327;BME280;62745;51.060;13.786;2023-06-14T01:44:36;100158.06;;;11.14;85.00
74327;BME280;62745;51.060;13.786;2023-06-14T01:47:02;100170.63;;;11.20;84.93
74327;BME280;62745;51.060;13.786;2023-06-14T01:49:27;100167.75;;;11.22;85.92
74327;BME280;62745;51.060;13.786;2023-06-14T01:51:53;100170.75;;;11.05;85.54
74327;BME280;62745;51.060;13.786;2023-06-14T01:54:18;100174.34;;;10.91;87.24
74327;BME280;62745;51.060;13.786;2023-06-14T01:56:43;100176.50;;;10.74;87.33
74327;BME280;62745;51.060;13.786;2023-06-14T01:59:08;100181.31;;;10.58;88.49
74327;BME280;62745;51.060;13.786;2023-06-14T02:01:34;100189.53;;;10.56;87.26
74327;BME280;62745;51.060;13.786;2023-06-14T02:03:59;100183.91;;;10.44;88.90
74327;BME280;62745;51.060;13.786;2023-06-14T02:06:26;100187.72;;;10.35;89.55
74327;BME280;62745;51.060;13.786;2023-06-14T02:08:51;100194.47;;;10.31;90.12
74327;BME280;62745;51.060;13.786;2023-06-14T02:11:17;100183.44;;;10.19;89.89
74327;BME280;62745;51.060;13.786;2023-06-14T02:13:42;100188.34;;;10.37;88.47
74327;BME280;62745;51.060;13.786;2023-06-14T02:16:07;100194.84;;;10.28;90.37
74327;BME280;62745;51.060;13.786;2023-06-14T02:18:32;100191.44;;;10.19;90.64
74327;BME280;62745;51.060;13.786;2023-06-14T02:20:58;100186.88;;;10.13;90.58
74327;BME280;62745;51.060;13.786;2023-06-14T02:23:23;100185.16;;;10.06;92.08
74327;BME280;62745;51.060;13.786;2023-06-14T02:25:48;100195.31;;;9.95;93.67
74327;BME280;62745;51.060;13.786;2023-06-14T02:28:14;100186.75;;;10.00;92.49
74327;BME280;62745;51.060;13.786;2023-06-14T02:30:39;100189.69;;;9.90;91.84
74327;BME280;62745;51.060;13.786;2023-06-14T02:33:05;100195.50;;;9.94;92.78
74327;BME280;62745;51.060;13.786;2023-06-14T02:35:31;100198.69;;;10.04;91.90
74327;BME280;62745;51.060;13.786;2023-06-14T02:37:56;100194.69;;;10.15;91.02
74327;BME280;62745;51.060;13.786;2023-06-14T02:40:22;100193.09;;;10.20;90.58
74327;BME280;62745;51.060;13.786;2023-06-14T02:42:47;100198.41;;;10.35;90.66
74327;BME280;62745;51.060;13.786;2023-06-14T02:45:13;100203.69;;;10.29;90.85
74327;BME280;62745;51.060;13.786;2023-06-14T02:47:38;100201.56;;;10.24;90.81
74327;BME280;62745;51.060;13.786;2023-06-14T02:50:04;100210.84;;;10.49;89.67
74327;BME280;62745;51.060;13.786;2023-06-14T02:52:29;100204.88;;;10.47;89.51
74327;BME280;62745;51.060;13.786;2023-06-14T02:54:54;100204.16;;;10.39;89.50
74327;BME280;62745;51.060;13.786;2023-06-14T02:57:21;100209.06;;;10.35;90.82
74327;BME280;62745;51.060;13.786;2023-06-14T02:59:47;100207.81;;;10.31;89.88
74327;BME280;62745;51.060;13.786;2023-06-14T03:02:12;100209.56;;;10.24;91.25
74327;BME280;62745;51.060;13.786;2023-06-14T03:04:37;100219.75;;;10.35;89.38
74327;BME280;62745;51.060;13.786;2023-06-14T03:07:03;100204.38;;;10.37;89.98
74327;BME280;62745;51.060;13.786;2023-06-14T03:09:35;100211.00;;;10.41;89.35
74327;BME280;62745;51.060;13.786;2023-06-14T03:12:01;100212.38;;;10.37;88.95
74327;BME280;62745;51.060;13.786;2023-06-14T03:14:28;100209.31;;;10.40;89.87
74327;BME280;62745;51.060;13.786;2023-06-14T03:16:54;100203.09;;;10.33;89.81
74327;BME280;62745;51.060;13.786;2023-06-14T03:19:22;100218.75;;;10.36;89.79
74327;BME280;62745;51.060;13.786;2023-06-14T03:21:47;100216.69;;;10.60;88.88
74327;BME280;62745;51.060;13.786;2023-06-14T03:24:12;100213.00;;;10.61;88.70
74327;BME280;62745;51.060;13.786;2023-06-14T03:26:37;100214.69;;;10.68;88.54
74327;BME280;62745;51.060;13.786;2023-06-14T03:29:03;100216.88;;;10.58;88.77
74327;BME280;62745;51.060;13.786;2023-06-14T03:31:29;100214.94;;;10.73;88.51
74327;BME280;62745;51.060;13.786;2023-06-14T03:33:57;100229.38;;;10.79;88.68
74327;BME280;62745;51.060;13.786;2023-06-14T03:36:23;100225.81;;;10.72;88.58
74327;BME280;62745;51.060;13.786;2023-06-14T03:38:48;100229.03;;;10.89;87.88
74327;BME280;62745;51.060;13.786;2023-06-14T03:41:13;100240.22;;;10.99;87.65
74327;BME280;62745;51.060;13.786;2023-06-14T03:43:38;100241.44;;;10.96;87.24
74327;BME280;62745;51.060;13.786;2023-06-14T03:46:04;100239.31;;;10.92;87.67
74327;BME280;62745;51.060;13.786;2023-06-14T03:48:29;100240.53;;;10.89;87.42
74327;BME280;62745;51.060;13.786;2023-06-14T03:50:54;100240.03;;;11.00;86.89
74327;BME280;62745;51.060;13.786;2023-06-14T03:53:21;100242.69;;;10.72;87.73
74327;BME280;62745;51.060;13.786;2023-06-14T03:55:49;100252.25;;;10.88;87.84
74327;BME280;62745;51.060;13.786;2023-06-14T03:58:15;100259.25;;;10.89;87.14
74327;BME280;62745;51.060;13.786;2023-06-14T04:00:40;100253.38;;;11.00;87.47
74327;BME280;62745;51.060;13.786;2023-06-14T04:03:05;100257.31;;;11.04;86.46
74327;BME280;62745;51.060;13.786;2023-06-14T04:05:31;100260.50;;;11.21;86.37
74327;BME280;62745;51.060;13.786;2023-06-14T04:07:56;100273.03;;;11.14;86.31
74327;BME280;62745;51.060;13.786;2023-06-14T04:10:22;100270.53;;;11.12;86.38
74327;BME280;62745;51.060;13.786;2023-06-14T04:12:47;100273.03;;;11.14;87.19
74327;BME280;62745;51.060;13.786;2023-06-14T04:15:13;100272.41;;;11.12;87.34
74327;BME280;62745;51.060;13.786;2023-06-14T04:17:38;100279.03;;;11.23;88.32
74327;BME280;62745;51.060;13.786;2023-06-14T04:20:04;100279.22;;;11.21;88.51
74327;BME280;62745;51.060;13.786;2023-06-14T04:22:31;100262.97;;;11.16;87.21
74327;BME280;62745;51.060;13.786;2023-06-14T04:24:56;100261.34;;;11.22;88.12
74327;BME280;62745;51.060;13.786;2023-06-14T04:27:23;100263.31;;;11.41;87.37
74327;BME280;62745;51.060;13.786;2023-06-14T04:29:54;100263.56;;;11.46;86.62
74327;BME280;62745;51.060;13.786;2023-06-14T04:32:26;100268.50;;;11.49;87.00
74327;BME280;62745;51.060;13.786;2023-06-14T04:34:53;100252.66;;;11.48;86.57
74327;BME280;62745;51.060;13.786;2023-06-14T04:37:19;100268.19;;;11.65;85.45
74327;BME280;62745;51.060;13.786;2023-06-14T04:39:46;100267.97;;;11.60;86.06
74327;BME280;62745;51.060;13.786;2023-06-14T04:42:12;100267.78;;;11.68;84.92
74327;BME280;62745;51.060;13.786;2023-06-14T04:44:41;100280.97;;;11.70;84.58
74327;BME280;62745;51.060;13.786;2023-06-14T04:47:06;100293.91;;;11.66;85.42
74327;BME280;62745;51.060;13.786;2023-06-14T04:49:32;100286.53;;;11.75;85.28
74327;BME280;62745;51.060;13.786;2023-06-14T04:51:57;100288.00;;;11.78;84.86
74327;BME280;62745;51.060;13.786;2023-06-14T04:54:24;100309.78;;;11.74;86.06
74327;BME280;62745;51.060;13.786;2023-06-14T04:56:53;100294.91;;;11.93;85.60
74327;BME280;62745;51.060;13.786;2023-06-14T04:59:20;100301.09;;;12.00;83.16
74327;BME280;62745;51.060;13.786;2023-06-14T05:01:48;100292.28;;;12.13;82.78
74327;BME280;62745;51.060;13.786;2023-06-14T05:04:16;100297.59;;;12.07;82.75
74327;BME280;62745;51.060;13.786;2023-06-14T05:06:42;100300.78;;;12.30;81.91
74327;BME280;62745;51.060;13.786;2023-06-14T05:09:10;100295.06;;;12.46;82.09
74327;BME280;62745;51.060;13.786;2023-06-14T05:11:35;100300.63;;;12.58;80.55
74327;BME280;62745;51.060;13.786;2023-06-14T05:14:00;100298.56;;;12.47;81.83
74327;BME280;62745;51.060;13.786;2023-06-14T05:16:26;100294.44;;;12.51;82.97
74327;BME280;62745;51.060;13.786;2023-06-14T05:18:52;100299.38;;;12.54;81.11
74327;BME280;62745;51.060;13.786;2023-06-14T05:21:18;100309.94;;;12.62;80.40
74327;BME280;62745;51.060;13.786;2023-06-14T05:23:44;100310.31;;;12.59;81.47
74327;BME280;62745;51.060;13.786;2023-06-14T05:26:10;100306.63;;;12.60;80.74
74327;BME280;62745;51.060;13.786;2023-06-14T05:28:35;100304.97;;;12.65;80.88
74327;BME280;62745;51.060;13.786;2023-06-14T05:31:01;100301.69;;;12.63;80.83
74327;BME280;62745;51.060;13.786;2023-06-14T05:33:26;100302.72;;;12.62;80.19
74327;BME280;62745;51.060;13.786;2023-06-14T05:35:52;100298.19;;;12.70;79.73
74327;BME280;62745;51.060;13.786;2023-06-14T05:38:17;100295.09;;;12.79;80.74
74327;BME280;62745;51.060;13.786;2023-06-14T05:40:42;100305.81;;;12.86;79.71
74327;BME280;62745;51.060;13.786;2023-06-14T05:43:07;100307.91;;;12.97;80.17
74327;BME280;62745;51.060;13.786;2023-06-14T05:45:33;100302.94;;;13.14;79.22
74327;BME280;62745;51.060;13.786;2023-06-14T05:47:58;100309.53;;;13.24;78.57
74327;BME280;62745;51.060;13.786;2023-06-14T05:50:23;100308.66;;;13.57;77.46
74327;BME280;62745;51.060;13.786;2023-06-14T05:52:48;100306.34;;;13.80;77.03
74327;BME280;62745;51.060;13.786;2023-06-14T05:55:16;100310.44;;;13.96;75.87
74327;BME280;62745;51.060;13.786;2023-06-14T05:57:41;100311.59;;;14.07;75.14
74327;BME280;62745;51.060;13.786;2023-06-14T06:00:08;100310.72;;;14.20;74.32
74327;BME280;62745;51.060;13.786;2023-06-14T06:02:36;100305.41;;;14.06;73.14
74327;BME280;62745;51.060;13.786;2023-06-14T06:05:01;100308.72;;;14.02;75.65
74327;BME280;62745;51.060;13.786;2023-06-14T06:07:27;100310.16;;;14.04;74.01
74327;BME280;62745;51.060;13.786;2023-06-14T06:09:52;100313.50;;;14.00;73.56
74327;BME280;62745;51.060;13.786;2023-06-14T06:12:17;100312.75;;;14.24;74.99
74327;BME280;62745;51.060;13.786;2023-06-14T06:14:43;100312.38;;;14.21;74.27
74327;BME280;62745;51.060;13.786;2023-06-14T06:17:08;100313.50;;;14.38;75.28
74327;BME280;62745;51.060;13.786;2023-06-14T06:19:33;100328.19;;;14.49;73.68
74327;BME280;62745;51.060;13.786;2023-06-14T06:21:58;100326.53;;;14.48;72.71
74327;BME280;62745;51.060;13.786;2023-06-14T06:24:24;100327.97;;;14.50;72.98
74327;BME280;62745;51.060;13.786;2023-06-14T06:26:49;100330.75;;;14.68;73.73
74327;BME280;62745;51.060;13.786;2023-06-14T06:29:14;100328.66;;;14.32;73.36
74327;BME280;62745;51.060;13.786;2023-06-14T06:31:40;100329.31;;;14.21;73.90
74327;BME280;62745;51.060;13.786;2023-06-14T06:34:05;100333.25;;;14.19;73.98
74327;BME280;62745;51.060;13.786;2023-06-14T06:36:30;100336.19;;;14.55;75.69
74327;BME280;62745;51.060;13.786;2023-06-14T06:38:55;100342.66;;;14.48;73.30
74327;BME280;62745;51.060;13.786;2023-06-14T06:41:21;100339.56;;;14.44;73.00
74327;BME280;62745;51.060;13.786;2023-06-14T06:43:46;100338.97;;;14.73;72.53
74327;BME280;62745;51.060;13.786;2023-06-14T06:46:11;100344.03;;;14.57;72.93
74327;BME280;62745;51.060;13.786;2023-06-14T06:48:37;100330.31;;;14.71;72.29
74327;BME280;62745;51.060;13.786;2023-06-14T06:51:03;100326.03;;;14.89;73.05
74327;BME280;62745;51.060;13.786;2023-06-14T06:53:28;100332.03;;;15.16;72.66
74327;BME280;62745;51.060;13.786;2023-06-14T06:55:53;100333.81;;;15.28;70.32
74327;BME280;62745;51.060;13.786;2023-06-14T06:58:18;100329.06;;;15.24;69.69
74327;BME280;62745;51.060;13.786;2023-06-14T07:00:44;100334.19;;;15.32;69.75
74327;BME280;62745;51.060;13.786;2023-06-14T07:03:09;100322.50;;;15.38;68.52
74327;BME280;62745;51.060;13.786;2023-06-14T07:05:35;100323.13;;;15.40;68.30
74327;BME280;62745;51.060;13.786;2023-06-14T07:08:00;100329.91;;;15.68;68.97
74327;BME280;62745;51.060;13.786;2023-06-14T07:10:26;100326.91;;;15.94;66.73
74327;BME280;62745;51.060;13.786;2023-06-14T07:12:51;100328.41;;;15.90;65.54
74327;BME280;62745;51.060;13.786;2023-06-14T07:15:16;100336.00;;;16.00;65.39
74327;BME280;62745;51.060;13.786;2023-06-14T07:17:42;100332.09;;;16.14;65.76
74327;BME280;62745;51.060;13.786;2023-06-14T07:20:08;100328.50;;;16.50;63.83
74327;BME280;62745;51.060;13.786;2023-06-14T07:22:36;100325.19;;;16.78;61.37
74327;BME280;62745;51.060;13.786;2023-06-14T07:25:02;100326.03;;;16.90;59.12
74327;BME280;62745;51.060;13.786;2023-06-14T07:27:28;100316.13;;;17.26;61.48
74327;BME280;62745;51.060;13.786;2023-06-14T07:29:53;100324.00;;;17.39;59.32
74327;BME280;62745;51.060;13.786;2023-06-14T07:32:18;100320.94;;;17.35;56.29
74327;BME280;62745;51.060;13.786;2023-06-14T07:34:43;100322.56;;;17.60;57.50
74327;BME280;62745;51.060;13.786;2023-06-14T07:37:09;100332.69;;;17.64;55.89
74327;BME280;62745;51.060;13.786;2023-06-14T07:39:34;100324.56;;;17.76;57.07
74327;BME280;62745;51.060;13.786;2023-06-14T07:41:59;100329.25;;;17.92;56.05
74327;BME280;62745;51.060;13.786;2023-06-14T07:44:25;100336.41;;;17.98;54.91
74327;BME280;62745;51.060;13.786;2023-06-14T07:46:51;100332.25;;;18.19;55.97
74327;BME280;62745;51.060;13.786;2023-06-14T07:49:16;100335.63;;;18.26;55.63
74327;BME280;62745;51.060;13.786;2023-06-14T07:51:41;100332.00;;;18.49;54.48
74327;BME280;62745;51.060;13.786;2023-06-14T07:54:08;100332.59;;;18.51;52.98
74327;BME280;62745;51.060;13.786;2023-06-14T07:56:33;100337.75;;;18.53;52.42
74327;BME280;62745;51.060;13.786;2023-06-14T07:58:58;100337.97;;;18.63;52.59
74327;BME280;62745;51.060;13.786;2023-06-14T08:01:24;100342.69;;;18.84;53.53
74327;BME280;62745;51.060;13.786;2023-06-14T08:03:50;100342.84;;;18.94;53.71
74327;BME280;62745;51.060;13.786;2023-06-14T08:06:16;100341.38;;;19.04;54.02
74327;BME280;62745;51.060;13.786;2023-06-14T08:08:41;100339.31;;;19.11;50.28
74327;BME280;62745;51.060;13.786;2023-06-14T08:11:06;100335.56;;;19.12;50.07
74327;BME280;62745;51.060;13.786;2023-06-14T08:13:32;100338.16;;;19.40;49.21
74327;BME280;62745;51.060;13.786;2023-06-14T08:15:57;100332.69;;;19.35;48.93
74327;BME280;62745;51.060;13.786;2023-06-14T08:18:23;100340.31;;;19.55;52.04
74327;BME280;62745;51.060;13.786;2023-06-14T08:20:49;100338.97;;;19.74;55.01
74327;BME280;62745;51.060;13.786;2023-06-14T08:23:15;100341.22;;;19.61;46.92
74327;BME280;62745;51.060;13.786;2023-06-14T08:25:44;100345.72;;;19.94;47.42
74327;BME280;62745;51.060;13.786;2023-06-14T08:28:09;100345.47;;;19.95;47.77
74327;BME280;62745;51.060;13.786;2023-06-14T08:30:34;100348.38;;;19.89;48.17
74327;BME280;62745;51.060;13.786;2023-06-14T08:33:00;100343.81;;;19.72;47.60
74327;BME280;62745;51.060;13.786;2023-06-14T08:35:26;100346.19;;;19.86;48.31
74327;BME280;62745;51.060;13.786;2023-06-14T08:37:51;100343.00;;;19.94;52.08
74327;BME280;62745;51.060;13.786;2023-06-14T08:40:21;100342.59;;;20.02;48.90
74327;BME280;62745;51.060;13.786;2023-06-14T08:42:52;100344.34;;;19.91;48.41
74327;BME280;62745;51.060;13.786;2023-06-14T08:45:18;100342.91;;;20.05;47.66
74327;BME280;62745;51.060;13.786;2023-06-14T08:47:43;100334.31;;;20.35;47.45
74327;BME280;62745;51.060;13.786;2023-06-14T08:50:11;100332.97;;;20.87;51.99
74327;BME280;62745;51.060;13.786;2023-06-14T08:52:38;100336.13;;;20.79;45.78
74327;BME280;62745;51.060;13.786;2023-06-14T08:55:07;100339.34;;;20.76;44.95
74327;BME280;62745;51.060;13.786;2023-06-14T08:57:36;100344.16;;;20.41;44.81
74327;BME280;62745;51.060;13.786;2023-06-14T09:00:03;100333.78;;;20.60;44.37
74327;BME280;62745;51.060;13.786;2023-06-14T09:02:37;100335.00;;;20.75;50.58
74327;BME280;62745;51.060;13.786;2023-06-14T09:05:02;100337.97;;;21.00;47.93
74327;BME280;62745;51.060;13.786;2023-06-14T09:07:28;100340.97;;;20.71;43.87
74327;BME280;62745;51.060;13.786;2023-06-14T09:10:14;100333.66;;;20.77;45.09
74327;BME280;62745;51.060;13.786;2023-06-14T09:12:40;100336.94;;;20.79;42.70
74327;BME280;62745;51.060;13.786;2023-06-14T09:15:06;100343.38;;;20.68;43.54
74327;BME280;62745;51.060;13.786;2023-06-14T09:17:37;100346.31;;;20.93;45.13
74327;BME280;62745;51.060;13.786;2023-06-14T09:20:04;100354.13;;;20.58;43.84
74327;BME280;62745;51.060;13.786;2023-06-14T09:22:34;100352.31;;;20.20;43.42
74327;BME280;62745;51.060;13.786;2023-06-14T09:24:59;100346.22;;;20.12;46.74
74327;BME280;62745;51.060;13.786;2023-06-14T09:27:26;100352.09;;;20.26;44.04
74327;BME280;62745;51.060;13.786;2023-06-14T09:29:52;100352.72;;;20.55;44.63
74327;BME280;62745;51.060;13.786;2023-06-14T09:32:17;100346.13;;;20.73;44.04
74327;BME280;62745;51.060;13.786;2023-06-14T09:34:42;100342.31;;;21.01;47.88
74327;BME280;62745;51.060;13.786;2023-06-14T09:37:07;100341.81;;;21.36;44.81
74327;BME280;62745;51.060;13.786;2023-06-14T09:39:33;100341.41;;;21.22;49.28
74327;BME280;62745;51.060;13.786;2023-06-14T09:41:58;100330.81;;;21.58;46.03
74327;BME280;62745;51.060;13.786;2023-06-14T09:44:25;100343.06;;;20.96;43.85
74327;BME280;62745;51.060;13.786;2023-06-14T09:46:53;100340.63;;;21.27;47.40
74327;BME280;62745;51.060;13.786;2023-06-14T09:49:20;100342.38;;;21.43;48.08
74327;BME280;62745;51.060;13.786;2023-06-14T09:51:50;100343.00;;;21.50;42.65
74327;BME280;62745;51.060;13.786;2023-06-14T09:54:16;100337.31;;;21.57;43.84
74327;BME280;62745;51.060;13.786;2023-06-14T09:56:45;100342.06;;;21.35;43.82
74327;BME280;62745;51.060;13.786;2023-06-14T09:59:12;100333.72;;;21.46;44.71
74327;BME280;62745;51.060;13.786;2023-06-14T10:01:44;100337.31;;;21.52;43.55
74327;BME280;62745;51.060;13.786;2023-06-14T10:04:10;100345.88;;;21.34;46.34
74327;BME280;62745;51.060;13.786;2023-06-14T10:06:40;100332.28;;;21.34;46.49
74327;BME280;62745;51.060;13.786;2023-06-14T10:09:08;100333.03;;;21.29;43.42
74327;BME280;62745;51.060;13.786;2023-06-14T10:11:35;100337.91;;;21.64;43.20
74327;BME280;62745;51.060;13.786;2023-06-14T10:14:01;100332.91;;;21.98;42.06
74327;BME280;62745;51.060;13.786;2023-06-14T10:16:33;100330.81;;;22.10;42.94
74327;BME280;62745;51.060;13.786;2023-06-14T10:19:08;100331.63;;;22.06;44.00
74327;BME280;62745;51.060;13.786;2023-06-14T10:21:57;100328.69;;;22.17;43.67
74327;BME280;62745;51.060;13.786;2023-06-14T10:24:40;100334.03;;;22.02;44.32
74327;BME280;62745;51.060;13.786;2023-06-14T10:27:07;100326.34;;;21.89;45.80
74327;BME280;62745;51.060;13.786;2023-06-14T10:32:20;100329.72;;;22.11;43.47
74327;BME280;62745;51.060;13.786;2023-06-14T10:34:53;100317.44;;;22.04;45.51
74327;BME280;62745;51.060;13.786;2023-06-14T10:37:19;100313.78;;;22.45;47.64
74327;BME280;62745;51.060;13.786;2023-06-14T10:39:45;100325.97;;;22.33;43.04
74327;BME280;62745;51.060;13.786;2023-06-14T10:42:12;100333.59;;;22.26;44.05
74327;BME280;62745;51.060;13.786;2023-06-14T10:44:39;100316.25;;;22.57;43.30
74327;BME280;62745;51.060;13.786;2023-06-14T10:47:34;100315.50;;;23.02;45.06
74327;BME280;62745;51.060;13.786;2023-06-14T10:50:05;100321.66;;;22.47;41.98
74327;BME280;62745;51.060;13.786;2023-06-14T10:52:33;100311.50;;;22.07;42.58
74327;BME280;62745;51.060;13.786;2023-06-14T10:55:16;100318.34;;;22.30;43.25
74327;BME280;62745;51.060;13.786;2023-06-14T10:57:54;100313.19;;;22.28;46.54
74327;BME280;62745;51.060;13.786;2023-06-14T11:00:25;100318.41;;;22.40;43.28
74327;BME280;62745;51.060;13.786;2023-06-14T11:03:03;100307.84;;;22.74;43.96
74327;BME280;62745;51.060;13.786;2023-06-14T11:05:51;100303.53;;;22.88;42.16
74327;BME280;62745;51.060;13.786;2023-06-14T11:11:18;100299.69;;;22.84;44.16
74327;BME280;62745;51.060;13.786;2023-06-14T11:13:46;100299.13;;;22.77;43.57
74327;BME280;62745;51.060;13.786;2023-06-14T11:16:15;100303.19;;;22.74;42.75
74327;BME280;62745;51.060;13.786;2023-06-14T11:18:41;100311.63;;;22.63;43.70
74327;BME280;62745;51.060;13.786;2023-06-14T11:21:07;100305.56;;;22.30;44.25
74327;BME280;62745;51.060;13.786;2023-06-14T11:23:34;100306.66;;;22.24;45.18
74327;BME280;62745;51.060;13.786;2023-06-14T11:25:59;100300.34;;;22.08;47.55
74327;BME280;62745;51.060;13.786;2023-06-14T11:28:35;100301.94;;;22.04;45.21
74327;BME280;62745;51.060;13.786;2023-06-14T11:31:03;100305.91;;;21.81;48.54
74327;BME280;62745;51.060;13.786;2023-06-14T11:33:28;100309.22;;;21.99;47.74
74327;BME280;62745;51.060;13.786;2023-06-14T11:35:53;100309.50;;;21.92;44.77
74327;BME280;62745;51.060;13.786;2023-06-14T11:38:19;100304.78;;;21.72;45.25
74327;BME280;62745;51.060;13.786;2023-06-14T11:40:44;100309.78;;;21.96;47.23
74327;BME280;62745;51.060;13.786;2023-06-14T11:43:10;100308.41;;;21.98;46.03
74327;BME280;62745;51.060;13.786;2023-06-14T11:45:35;100306.66;;;21.24;47.80
74327;BME280;62745;51.060;13.786;2023-06-14T11:48:00;100306.13;;;21.70;46.69
74327;BME280;62745;51.060;13.786;2023-06-14T11:50:26;100298.59;;;21.87;46.56
74327;BME280;62745;51.060;13.786;2023-06-14T11:52:54;100304.78;;;21.72;47.98
74327;BME280;62745;51.060;13.786;2023-06-14T11:55:20;100309.47;;;21.35;47.13
74327;BME280;62745;51.060;13.786;2023-06-14T11:57:46;100306.25;;;21.48;48.22
74327;BME280;62745;51.060;13.786;2023-06-14T12:00:12;100302.78;;;21.57;50.99
74327;BME280;62745;51.060;13.786;2023-06-14T12:02:38;100307.91;;;21.49;47.89
74327;BME280;62745;51.060;13.786;2023-06-14T12:05:07;100300.06;;;22.05;48.73
74327;BME280;62745;51.060;13.786;2023-06-14T12:07:38;100297.78;;;21.91;48.28
74327;BME280;62745;51.060;13.786;2023-06-14T12:10:08;100298.66;;;22.02;46.78
74327;BME280;62745;51.060;13.786;2023-06-14T12:12:38;100307.44;;;21.62;47.77
74327;BME280;62745;51.060;13.786;2023-06-14T12:15:05;100301.59;;;21.38;51.42
74327;BME280;62745;51.060;13.786;2023-06-14T12:17:35;100312.31;;;21.18;48.76
74327;BME280;62745;51.060;13.786;2023-06-14T12:20:13;100315.72;;;21.03;51.67
74327;BME280;62745;51.060;13.786;2023-06-14T12:22:54;100315.09;;;21.28;51.88
74327;BME280;62745;51.060;13.786;2023-06-14T12:25:28;100301.91;;;21.47;50.53
74327;BME280;62745;51.060;13.786;2023-06-14T12:27:56;100300.91;;;22.15;47.84
74327;BME280;62745;51.060;13.786;2023-06-14T12:30:22;100307.84;;;22.69;46.47
74327;BME280;62745;51.060;13.786;2023-06-14T12:32:47;100291.97;;;23.73;46.23
74327;BME280;62745;51.060;13.786;2023-06-14T12:35:13;100290.84;;;24.77;41.66
74327;BME280;62745;51.060;13.786;2023-06-14T12:37:38;100283.25;;;25.08;40.72
74327;BME280;62745;51.060;13.786;2023-06-14T12:40:04;100294.84;;;24.51;42.46
74327;BME280;62745;51.060;13.786;2023-06-14T12:42:31;100286.25;;;24.28;42.28
74327;BME280;62745;51.060;13.786;2023-06-14T12:44:56;100290.41;;;23.26;42.73